createdAt,value
2023-01-25T00:01:04.342Z,22.58
2023-01-25T00:04:06.976Z,22.02
2023-01-25T00:07:09.657Z,21.77
2023-01-25T00:10:12.681Z,21.70
2023-01-25T00:13:15.683Z,20.38
2023-01-25T00:16:18.310Z,21.48
2023-01-25T00:19:20.927Z,20.92
2023-01-25T00:22:23.352Z,21.90
2023-01-25T00:25:25.871Z,21.13
2023-01-25T00:28:28.630Z,21.20
2023-01-25T00:31:34.512Z,21.90
2023-01-25T00:34:48.285Z,20.33
2023-01-25T00:37:53.229Z,19.77
2023-01-25T00:40:57.500Z,19.67
2023-01-25T00:44:00.047Z,21.30
2023-01-25T00:47:03.739Z,19.20
2023-01-25T00:50:08.368Z,20.08
2023-01-25T00:53:11.197Z,20.85
2023-01-25T00:56:14.038Z,20.50
2023-01-25T00:59:16.694Z,19.47
2023-01-25T01:02:19.691Z,20.85
2023-01-25T01:05:22.216Z,19.67
2023-01-25T01:08:25.096Z,21.13
2023-01-25T01:11:28.770Z,18.75
2023-01-25T01:14:32.975Z,20.05
2023-01-25T01:17:35.466Z,20.05
2023-01-25T01:20:39.191Z,20.07
2023-01-25T01:23:41.884Z,19.75
2023-01-25T01:26:44.577Z,18.27
2023-01-25T01:29:47.386Z,19.23
2023-01-25T01:32:51.703Z,19.30
2023-01-25T01:35:54.382Z,21.38
2023-01-25T01:38:59.120Z,19.30
2023-01-25T01:42:01.972Z,19.70
2023-01-25T01:45:42.878Z,18.48
2023-01-25T01:48:51.326Z,19.67
2023-01-25T01:52:01.947Z,19.02
2023-01-25T01:55:18.775Z,18.43
2023-01-25T01:58:22.979Z,19.08
2023-01-25T02:01:27.753Z,19.92
2023-01-25T02:04:31.026Z,20.07
2023-01-25T02:07:37.161Z,19.45
2023-01-25T02:10:43.050Z,19.45
2023-01-25T02:13:47.240Z,19.20
2023-01-25T02:16:51.630Z,18.30
2023-01-25T02:20:09.281Z,18.85
2023-01-25T02:23:55.754Z,20.48
2023-01-25T02:26:58.405Z,19.90
2023-01-25T02:30:01.262Z,19.35
2023-01-25T02:33:04.206Z,18.48
2023-01-25T02:36:06.751Z,17.20
2023-01-25T02:39:17.335Z,15.90
2023-01-25T02:42:21.276Z,16.38
2023-01-25T02:45:29.570Z,16.38
2023-01-25T02:48:32.002Z,15.13
2023-01-25T02:51:40.076Z,14.73
2023-01-25T02:54:42.541Z,13.93
2023-01-25T02:57:45.276Z,14.57
2023-01-25T03:00:54.656Z,14.80
2023-01-25T03:03:57.261Z,16.15
2023-01-25T03:06:59.830Z,16.00
2023-01-25T03:10:04.018Z,16.33
2023-01-25T03:13:07.841Z,15.02
2023-01-25T03:16:12.989Z,16.90
2023-01-25T03:19:17.714Z,15.03
2023-01-25T03:22:20.681Z,15.60
2023-01-25T03:25:25.386Z,15.88
2023-01-25T03:28:35.420Z,16.40
2023-01-25T03:31:38.603Z,15.63
2023-01-25T03:34:41.114Z,15.32
2023-01-25T03:37:44.007Z,16.45
2023-01-25T03:40:47.689Z,15.73
2023-01-25T03:43:50.408Z,16.15
2023-01-25T03:46:53.777Z,15.27
2023-01-25T03:49:56.821Z,14.43
2023-01-25T03:53:07.212Z,14.15
2023-01-25T03:56:19.895Z,13.35
2023-01-25T03:59:33.428Z,14.43
2023-01-25T04:02:35.927Z,14.63
2023-01-25T04:05:39.170Z,15.00
2023-01-25T04:08:41.691Z,14.77
2023-01-25T04:11:44.988Z,14.97
2023-01-25T04:14:48.844Z,16.30
2023-01-25T04:17:57.129Z,14.43
2023-01-25T04:21:01.451Z,15.80
2023-01-25T04:24:04.392Z,16.23
2023-01-25T04:27:11.319Z,16.13
2023-01-25T04:30:22.270Z,14.43
2023-01-25T04:33:26.646Z,15.52
2023-01-25T04:36:29.107Z,14.60
2023-01-25T04:39:31.692Z,16.00
2023-01-25T04:42:34.547Z,14.03
2023-01-25T04:45:37.165Z,15.40
2023-01-25T04:48:44.908Z,14.25
2023-01-25T04:51:48.324Z,13.00
2023-01-25T04:54:50.833Z,13.57
2023-01-25T04:57:53.374Z,14.15
2023-01-25T05:01:00.969Z,14.02
2023-01-25T05:04:03.708Z,13.32
2023-01-25T05:07:12.575Z,13.73
2023-01-25T05:10:15.754Z,14.20
2023-01-25T05:13:35.855Z,13.53
2023-01-25T05:16:47.957Z,13.63
2023-01-25T05:19:51.107Z,12.82
2023-01-25T05:22:57.932Z,12.70
2023-01-25T05:26:18.910Z,13.50
2023-01-25T05:29:21.956Z,13.13
2023-01-25T05:32:35.929Z,12.18
2023-01-25T05:35:39.088Z,12.25
2023-01-25T05:38:41.798Z,12.68
2023-01-25T05:41:45.769Z,11.65
2023-01-25T05:44:48.535Z,10.70
2023-01-25T05:47:54.286Z,11.45
2023-01-25T05:50:58.363Z,12.18
2023-01-25T05:54:00.907Z,11.73
2023-01-25T05:57:03.875Z,12.13
2023-01-25T06:00:07.394Z,12.20
2023-01-25T06:03:15.883Z,11.45
2023-01-25T06:06:19.273Z,11.50
2023-01-25T06:09:23.523Z,12.68
2023-01-25T06:12:29.399Z,13.00
2023-01-25T06:15:33.254Z,10.07
2023-01-25T06:18:56.032Z,10.63
2023-01-25T06:22:21.701Z,10.32
2023-01-25T06:25:24.330Z,11.33
2023-01-25T06:28:30.802Z,10.95
2023-01-25T06:31:34.818Z,10.43
2023-01-25T06:34:37.663Z,11.32
2023-01-25T06:37:40.454Z,10.32
2023-01-25T06:40:43.354Z,10.65
2023-01-25T06:43:46.910Z,11.15
2023-01-25T06:46:49.547Z,10.60
2023-01-25T06:49:52.080Z,10.23
2023-01-25T06:52:55.666Z,10.95
2023-01-25T06:56:11.797Z,10.47
2023-01-25T06:59:16.077Z,11.50
2023-01-25T07:02:18.566Z,12.43
2023-01-25T07:05:21.075Z,12.32
2023-01-25T07:08:23.784Z,11.95
2023-01-25T07:11:26.727Z,9.02
2023-01-25T07:14:31.024Z,10.32
2023-01-25T07:17:33.564Z,11.80
2023-01-25T07:20:37.524Z,12.10
2023-01-25T07:23:41.623Z,11.48
2023-01-25T07:26:44.538Z,12.97
2023-01-25T07:29:47.310Z,15.13
2023-01-25T07:32:49.774Z,18.70
2023-01-25T07:35:52.241Z,17.42
2023-01-25T07:38:56.170Z,17.77
2023-01-25T07:41:58.889Z,22.63
2023-01-25T07:45:08.580Z,19.95
2023-01-25T07:48:11.378Z,17.40
2023-01-25T07:51:22.885Z,18.00
2023-01-25T07:54:25.607Z,15.45
2023-01-25T07:57:31.182Z,18.10
2023-01-25T08:00:33.842Z,16.20
2023-01-25T08:03:36.594Z,16.48
2023-01-25T08:06:39.481Z,17.40
2023-01-25T08:09:42.599Z,17.23
2023-01-25T08:12:46.561Z,14.88
2023-01-25T08:15:55.868Z,16.20
2023-01-25T08:19:00.303Z,15.70
2023-01-25T08:22:02.818Z,15.63
2023-01-25T08:25:05.732Z,14.65
2023-01-25T08:28:08.352Z,14.50
2023-01-25T08:31:19.193Z,14.48
2023-01-25T08:34:21.709Z,13.75
2023-01-25T08:37:24.313Z,14.38
2023-01-25T08:40:27.698Z,13.20
2023-01-25T08:43:30.221Z,14.80
2023-01-25T08:46:34.000Z,15.32
2023-01-25T08:49:36.560Z,14.90
2023-01-25T08:52:39.423Z,13.93
2023-01-25T08:55:43.240Z,14.80
2023-01-25T08:58:48.449Z,15.02
2023-01-25T09:01:50.965Z,14.53
2023-01-25T09:04:53.684Z,16.30
2023-01-25T09:07:56.174Z,15.88
2023-01-25T09:11:03.590Z,17.20
2023-01-25T09:14:06.615Z,18.63
2023-01-25T09:17:09.833Z,17.63
2023-01-25T09:20:12.646Z,19.20
2023-01-25T09:23:15.565Z,16.92
2023-01-25T09:26:18.946Z,17.60
2023-01-25T09:29:21.511Z,17.52
2023-01-25T09:32:24.440Z,15.75
2023-01-25T09:35:29.727Z,16.77
2023-01-25T09:38:32.691Z,16.77
2023-01-25T09:41:40.994Z,18.10
2023-01-25T09:45:04.643Z,17.60
2023-01-25T09:48:22.294Z,18.95
2023-01-25T09:51:51.913Z,17.93
2023-01-25T09:54:54.540Z,17.80
2023-01-25T09:58:00.866Z,18.38
2023-01-25T10:01:41.047Z,17.25
2023-01-25T10:04:46.049Z,18.03
2023-01-25T10:08:17.875Z,16.00
2023-01-25T10:11:25.874Z,14.05
2023-01-25T10:14:33.409Z,17.23
2023-01-25T10:17:40.046Z,15.97
2023-01-25T10:20:53.195Z,16.73
2023-01-25T10:24:08.353Z,16.05
2023-01-25T10:27:23.672Z,15.80
2023-01-25T10:30:29.733Z,15.33
2023-01-25T10:33:38.717Z,14.38
2023-01-25T10:36:42.519Z,16.45
2023-01-25T10:40:14.602Z,17.38
2023-01-25T10:43:20.341Z,17.80
2023-01-25T10:46:26.363Z,19.55
2023-01-25T10:49:44.248Z,19.67
2023-01-25T10:52:58.335Z,19.05
2023-01-25T10:56:24.378Z,19.55
2023-01-25T10:59:28.988Z,17.40
2023-01-25T11:03:01.052Z,16.17
2023-01-25T11:06:04.425Z,14.25
2023-01-25T11:09:21.898Z,16.05
2023-01-25T11:12:24.420Z,15.53
2023-01-25T11:15:27.041Z,15.68
2023-01-25T11:18:33.848Z,16.85
2023-01-25T11:21:36.345Z,18.20
2023-01-25T11:24:39.401Z,14.82
2023-01-25T11:27:42.001Z,14.60
2023-01-25T11:30:45.763Z,13.88
2023-01-25T11:33:48.450Z,12.65
2023-01-25T11:37:18.396Z,12.77
2023-01-25T11:41:02.372Z,11.98
2023-01-25T11:44:33.822Z,11.80
2023-01-25T11:48:03.986Z,12.23
2023-01-25T11:51:14.099Z,11.27
2023-01-25T11:54:32.874Z,12.48
2023-01-25T11:57:54.028Z,11.57
2023-01-25T12:01:14.883Z,12.03
2023-01-25T12:04:50.871Z,11.48
2023-01-25T12:08:27.027Z,13.05
2023-01-25T12:11:32.225Z,12.43
2023-01-25T12:14:56.222Z,12.33
2023-01-25T12:18:11.187Z,12.83
2023-01-25T12:21:40.190Z,10.95
2023-01-25T12:25:03.372Z,12.30
2023-01-25T12:28:21.281Z,13.13
2023-01-25T12:31:29.499Z,12.60
2023-01-25T12:34:40.956Z,11.47
2023-01-25T12:37:46.277Z,11.05
2023-01-25T12:41:00.177Z,11.82
2023-01-25T12:44:23.009Z,11.38
2023-01-25T12:48:03.275Z,11.17
2023-01-25T12:51:05.789Z,11.27
2023-01-25T12:54:23.403Z,11.35
2023-01-25T12:57:47.547Z,11.35
2023-01-25T13:01:12.002Z,10.15
2023-01-25T13:04:51.354Z,10.47
2023-01-25T13:08:31.824Z,10.33
2023-01-25T13:11:41.138Z,9.93
2023-01-25T13:14:44.143Z,11.38
2023-01-25T13:17:46.687Z,11.60
2023-01-25T13:20:53.875Z,11.10
2023-01-25T13:24:11.588Z,12.05
2023-01-25T13:27:36.567Z,10.80
2023-01-25T13:30:52.139Z,10.20
2023-01-25T13:33:54.598Z,10.40
2023-01-25T13:36:57.425Z,10.70
2023-01-25T13:40:32.757Z,9.70
2023-01-25T13:43:35.343Z,11.40
2023-01-25T13:46:38.091Z,9.88
2023-01-25T13:49:42.128Z,9.87
2023-01-25T13:53:02.402Z,9.70
2023-01-25T13:56:05.434Z,9.48
2023-01-25T13:59:26.936Z,10.07
2023-01-25T14:02:35.096Z,8.93
2023-01-25T14:05:37.556Z,9.37
2023-01-25T14:08:40.723Z,9.80
2023-01-25T14:11:55.895Z,9.75
2023-01-25T14:15:10.055Z,9.32
2023-01-25T14:18:19.434Z,9.13
2023-01-25T14:21:22.787Z,9.37
2023-01-25T14:24:25.334Z,9.75
2023-01-25T14:27:27.873Z,9.52
2023-01-25T14:30:34.777Z,9.07
2023-01-25T14:33:40.376Z,9.47
2023-01-25T14:36:42.863Z,9.80
2023-01-25T14:39:46.592Z,9.45
2023-01-25T14:42:51.178Z,10.52
2023-01-25T14:45:54.057Z,10.43
2023-01-25T14:49:11.769Z,9.47
2023-01-25T14:52:19.500Z,10.50
2023-01-25T14:55:22.232Z,11.07
2023-01-25T14:58:29.079Z,11.93
2023-01-25T15:01:38.120Z,9.93
2023-01-25T15:04:55.785Z,12.20
2023-01-25T15:08:15.594Z,12.10
2023-01-25T15:11:49.016Z,11.68
2023-01-25T15:14:56.480Z,10.75
2023-01-25T15:17:59.980Z,9.70
2023-01-25T15:21:03.603Z,10.10
2023-01-25T15:24:12.225Z,9.45
2023-01-25T15:27:14.806Z,10.20
2023-01-25T15:30:19.250Z,10.33
2023-01-25T15:33:28.742Z,10.70
2023-01-25T15:36:32.880Z,10.35
2023-01-25T15:39:35.889Z,8.90
2023-01-25T15:42:38.802Z,11.80
2023-01-25T15:45:46.391Z,11.50
2023-01-25T15:48:50.149Z,12.10
2023-01-25T15:51:54.083Z,10.85
2023-01-25T15:55:01.869Z,10.77
2023-01-25T15:58:05.280Z,13.33
2023-01-25T16:01:08.140Z,13.23
2023-01-25T16:04:13.703Z,10.52
2023-01-25T16:07:24.783Z,11.38
2023-01-25T16:10:27.885Z,11.00
2023-01-25T16:13:30.309Z,10.63
2023-01-25T16:16:37.354Z,9.77
2023-01-25T16:19:39.796Z,9.82
2023-01-25T16:22:42.490Z,10.47
2023-01-25T16:25:48.429Z,10.50
2023-01-25T16:28:51.052Z,10.10
2023-01-25T16:31:55.755Z,11.18
2023-01-25T16:34:58.796Z,11.20
2023-01-25T16:38:01.581Z,11.52
2023-01-25T16:41:05.038Z,15.52
2023-01-25T16:44:07.726Z,15.60
2023-01-25T16:47:14.702Z,15.60
2023-01-25T16:50:19.003Z,12.95
2023-01-25T16:53:21.567Z,13.02
2023-01-25T16:56:27.535Z,11.80
2023-01-25T16:59:30.760Z,13.23
2023-01-25T17:02:33.565Z,11.40
2023-01-25T17:05:38.361Z,11.05
2023-01-25T17:08:41.105Z,13.15
2023-01-25T17:11:44.070Z,10.57
2023-01-25T17:14:46.666Z,15.27
2023-01-25T17:17:49.232Z,14.98
2023-01-25T17:21:01.918Z,14.63
2023-01-25T17:24:04.843Z,13.88
2023-01-25T17:27:07.604Z,12.87
2023-01-25T17:30:12.298Z,12.13
2023-01-25T17:33:16.424Z,12.73
2023-01-25T17:36:19.985Z,13.32
2023-01-25T17:39:23.442Z,12.50
2023-01-25T17:42:26.377Z,12.63
2023-01-25T17:45:29.410Z,13.27
2023-01-25T17:48:32.266Z,13.98
2023-01-25T17:51:36.656Z,15.65
2023-01-25T17:54:40.195Z,17.20
2023-01-25T17:57:43.540Z,17.08
2023-01-25T18:00:47.309Z,15.80
2023-01-25T18:03:52.404Z,13.90
2023-01-25T18:06:55.232Z,14.30
2023-01-25T18:09:57.862Z,14.10
2023-01-25T18:13:04.945Z,14.52
2023-01-25T18:16:10.052Z,14.60
2023-01-25T18:19:13.431Z,13.27
2023-01-25T18:22:16.276Z,13.75
2023-01-25T18:25:36.212Z,13.32
2023-01-25T18:28:38.900Z,12.15
2023-01-25T18:31:42.377Z,12.50
2023-01-25T18:34:46.888Z,12.70
2023-01-25T18:37:49.751Z,13.60
2023-01-25T18:40:53.450Z,12.68
2023-01-25T18:43:56.869Z,13.20
2023-01-25T18:46:59.659Z,12.67
2023-01-25T18:50:02.792Z,13.27
2023-01-25T18:53:05.815Z,12.98
2023-01-25T18:56:17.564Z,12.82
2023-01-25T18:59:20.284Z,14.07
2023-01-25T19:02:24.170Z,14.03
2023-01-25T19:05:27.879Z,13.98
2023-01-25T19:08:36.456Z,15.25
2023-01-25T19:11:39.514Z,15.90
2023-01-25T19:14:42.419Z,16.00
2023-01-25T19:17:45.233Z,16.58
2023-01-25T19:20:50.351Z,17.25
2023-01-25T19:23:54.789Z,16.90
2023-01-25T19:26:57.729Z,16.53
2023-01-25T19:30:00.791Z,15.95
2023-01-25T19:33:03.512Z,15.88
2023-01-25T19:36:09.173Z,17.00
2023-01-25T19:39:12.376Z,16.27
2023-01-25T19:42:18.399Z,15.95
2023-01-25T19:45:21.439Z,16.70
2023-01-25T19:48:23.978Z,16.40
2023-01-25T19:51:32.105Z,14.68
2023-01-25T19:54:35.316Z,14.53
2023-01-25T19:57:38.505Z,14.30
2023-01-25T20:00:43.744Z,14.27
2023-01-25T20:03:47.418Z,15.25
2023-01-25T20:06:50.906Z,14.13
2023-01-25T20:09:53.733Z,14.05
2023-01-25T20:12:57.479Z,13.40
2023-01-25T20:16:00.367Z,13.27
2023-01-25T20:19:03.762Z,13.17
2023-01-25T20:22:06.956Z,12.80
2023-01-25T20:25:10.125Z,13.18
2023-01-25T20:28:13.218Z,13.25
2023-01-25T20:31:35.001Z,13.00
2023-01-25T20:34:38.088Z,13.05
2023-01-25T20:37:40.907Z,12.50
2023-01-25T20:40:43.702Z,12.40
2023-01-25T20:43:48.358Z,12.27
2023-01-25T20:46:51.758Z,11.93
2023-01-25T20:49:55.654Z,11.68
2023-01-25T20:52:59.036Z,13.38
2023-01-25T20:56:01.620Z,11.27
2023-01-25T20:59:04.516Z,12.57
2023-01-25T21:02:10.655Z,12.18
2023-01-25T21:05:13.616Z,11.48
2023-01-25T21:08:17.234Z,12.47
2023-01-25T21:11:20.365Z,15.13
2023-01-25T21:14:23.451Z,16.33
2023-01-25T21:17:26.324Z,17.45
2023-01-25T21:20:31.784Z,18.27
2023-01-25T21:23:35.593Z,17.60
2023-01-25T21:26:38.597Z,17.40
2023-01-25T21:29:41.346Z,19.17
2023-01-25T21:32:44.219Z,21.27
2023-01-25T21:35:47.020Z,21.80
2023-01-25T21:38:51.354Z,26.33
2023-01-25T21:41:53.831Z,24.70
2023-01-25T21:45:15.394Z,21.13
2023-01-25T21:48:37.865Z,21.98
2023-01-25T21:51:50.777Z,20.67
2023-01-25T21:54:53.265Z,19.92
2023-01-25T21:57:55.702Z,20.13
2023-01-25T22:01:02.152Z,20.70
2023-01-25T22:04:06.069Z,18.48
2023-01-25T22:07:09.351Z,18.83
2023-01-25T22:10:12.125Z,18.20
2023-01-25T22:13:14.830Z,18.85
2023-01-25T22:16:17.304Z,18.40
2023-01-25T22:19:19.857Z,18.90
2023-01-25T22:22:22.630Z,18.63
2023-01-25T22:25:25.239Z,19.10
2023-01-25T22:28:28.236Z,19.70
2023-01-25T22:31:31.850Z,20.63
2023-01-25T22:34:34.429Z,20.08
2023-01-25T22:37:38.130Z,21.70
2023-01-25T22:40:41.199Z,20.73
2023-01-25T22:43:44.368Z,20.07
2023-01-25T22:46:47.424Z,20.98
2023-01-25T22:49:50.178Z,21.50
2023-01-25T22:52:52.671Z,21.35
2023-01-25T22:56:06.289Z,20.60
2023-01-25T22:59:11.585Z,20.47
2023-01-25T23:02:14.060Z,22.23
2023-01-25T23:05:16.647Z,21.08
2023-01-25T23:08:19.210Z,20.95
2023-01-25T23:11:24.260Z,20.80
2023-01-25T23:14:46.988Z,19.67
2023-01-25T23:18:08.039Z,19.13
2023-01-25T23:21:11.874Z,19.17
2023-01-25T23:24:14.594Z,19.27
2023-01-25T23:27:17.051Z,19.80
2023-01-25T23:30:20.063Z,19.17
2023-01-25T23:33:22.519Z,18.83
2023-01-25T23:36:28.393Z,19.13
2023-01-25T23:39:30.899Z,18.97
2023-01-25T23:42:33.388Z,18.92
2023-01-25T23:45:35.915Z,18.95
2023-01-25T23:48:38.550Z,18.70
2023-01-25T23:51:41.239Z,18.70
2023-01-25T23:54:43.695Z,18.58
2023-01-25T23:57:46.137Z,18.70
